Time;durP1;ratioP1;P1;durP2;ratioP2;P2;SDS_P1;SDS_P2;PMS_P1;PMS_P2;Temp;Humidity;BMP_temperature;BMP_pressure;BME280_temperature;BME280_humidity;BME280_pressure;Samples;Min_cycle;Max_cycle;Signal;HPM_P1;HPM_P2
2023/08/01 00:01:02;;;;;;;9.07;4.22;;;19.10;99.90;;;;;;5048663;28;20041;-51
2023/08/01 00:03:28;;;;;;;6.95;3.65;;;19.40;99.90;;;;;;5049225;28;20033;-51
2023/08/01 00:05:54;;;;;;;6.30;4.05;;;19.30;99.90;;;;;;5068735;28;20032;-52
2023/08/01 00:08:21;;;;;;;6.00;3.53;;;19.20;99.90;;;;;;5068639;28;20039;-53
2023/08/01 00:10:47;;;;;;;10.20;3.92;;;19.00;99.90;;;;;;5068681;28;20032;-52
2023/08/01 00:13:13;;;;;;;8.35;3.58;;;19.10;99.90;;;;;;5070666;28;20381;-53
2023/08/01 00:15:38;;;;;;;4.18;3.20;;;19.10;99.90;;;;;;5071254;28;20089;-53
2023/08/01 00:18:04;;;;;;;4.70;3.50;;;19.00;99.90;;;;;;5071017;28;20063;-53
2023/08/01 00:20:30;;;;;;;7.75;3.45;;;19.00;99.90;;;;;;5073897;28;20147;-52
2023/08/01 00:22:57;;;;;;;5.20;3.03;;;18.90;99.90;;;;;;5074523;28;20029;-53
2023/08/01 00:25:22;;;;;;;4.72;3.00;;;19.00;99.90;;;;;;5038939;28;20028;-53
2023/08/01 00:27:48;;;;;;;4.68;3.03;;;19.10;99.90;;;;;;5074266;28;20029;-48
2023/08/01 00:30:14;;;;;;;6.50;3.33;;;18.90;99.90;;;;;;5022308;28;20039;-53
2023/08/01 00:32:39;;;;;;;5.30;3.00;;;18.90;99.90;;;;;;5074421;28;20033;-52
2023/08/01 00:35:06;;;;;;;5.47;3.08;;;;;;;;;;5022119;28;20036;-51
2023/08/01 00:37:31;;;;;;;3.85;2.67;;;18.70;99.90;;;;;;5038087;28;20090;-52
2023/08/01 00:39:57;;;;;;;4.03;3.03;;;;;;;;;;5068849;28;20460;-52
2023/08/01 00:42:23;;;;;;;5.63;3.30;;;18.30;99.90;;;;;;5054224;28;20403;-51
2023/08/01 00:44:51;;;;;;;5.68;3.40;;;;;;;;;;5054301;28;20028;-51
2023/08/01 00:47:16;;;;;;;8.18;4.38;;;18.30;99.90;;;;;;5054195;28;20033;-52
2023/08/01 00:49:42;;;;;;;6.40;3.45;;;18.30;99.90;;;;;;5054511;28;20037;-52
2023/08/01 00:52:09;;;;;;;5.47;2.92;;;18.30;99.90;;;;;;5054180;28;20091;-51
2023/08/01 00:54:36;;;;;;;5.47;3.10;;;;;;;;;;5054001;28;20021;-51
2023/08/01 00:57:05;;;;;;;6.07;3.15;;;18.20;99.90;;;;;;5054028;28;20041;-53
2023/08/01 00:59:32;;;;;;;8.38;3.47;;;18.20;99.90;;;;;;5054126;28;20021;-53
2023/08/01 01:01:59;;;;;;;7.00;3.45;;;18.20;99.90;;;;;;5053906;28;20074;-52
2023/08/01 01:04:26;;;;;;;5.90;3.53;;;18.10;99.90;;;;;;5070296;28;20051;-51
2023/08/01 01:06:59;;;;;;;6.90;3.85;;;18.10;99.90;;;;;;5094155;28;20128;-52
2023/08/01 01:09:28;;;;;;;9.75;3.63;;;18.20;99.90;;;;;;5094444;28;20060;-51
2023/08/01 01:11:54;;;;;;;6.43;3.70;;;18.20;99.90;;;;;;5075983;28;20642;-54
2023/08/01 01:14:20;;;;;;;4.30;3.42;;;18.10;99.90;;;;;;5094367;28;20031;-52
2023/08/01 01:16:45;;;;;;;8.00;3.83;;;18.10;99.90;;;;;;5093957;28;20100;-51
2023/08/01 01:19:11;;;;;;;7.50;4.10;;;18.00;99.90;;;;;;5041595;28;20096;-54
2023/08/01 01:21:39;;;;;;;6.30;4.88;;;18.00;99.90;;;;;;5093774;28;20052;-52
2023/08/01 01:24:08;;;;;;;5.50;3.70;;;18.20;99.90;;;;;;5094120;28;20024;-51
2023/08/01 01:26:34;;;;;;;6.78;3.97;;;18.20;99.90;;;;;;5093726;28;20475;-52
2023/08/01 01:29:02;;;;;;;6.63;4.20;;;18.50;99.90;;;;;;5057916;28;20039;-52
2023/08/01 01:31:29;;;;;;;5.13;3.42;;;18.60;99.90;;;;;;5093788;28;20035;-53
2023/08/01 01:33:55;;;;;;;8.57;3.63;;;18.80;99.90;;;;;;5093807;28;20040;-53
2023/08/01 01:36:21;;;;;;;6.40;3.33;;;18.80;99.90;;;;;;5093594;28;20032;-51
2023/08/01 01:38:47;;;;;;;4.20;3.28;;;18.60;99.90;;;;;;5057969;28;20387;-52
2023/08/01 01:41:12;;;;;;;6.78;3.80;;;18.40;99.90;;;;;;5093303;28;20406;-52
2023/08/01 01:43:39;;;;;;;6.05;3.70;;;;;;;;;;5041267;28;20036;-53
2023/08/01 01:46:04;;;;;;;4.25;3.00;;;18.40;99.90;;;;;;5093698;28;20032;-53
2023/08/01 01:48:30;;;;;;;6.35;3.53;;;18.30;99.90;;;;;;5093386;28;20107;-53
2023/08/01 01:50:56;;;;;;;5.82;3.17;;;18.30;99.90;;;;;;5041038;28;20127;-52
2023/08/01 01:53:22;;;;;;;6.35;3.40;;;18.20;99.90;;;;;;5041074;28;20110;-52
2023/08/01 01:55:47;;;;;;;7.18;2.92;;;18.20;99.90;;;;;;5040781;28;20072;-51
2023/08/01 01:58:13;;;;;;;4.97;3.33;;;18.00;99.90;;;;;;5040761;28;20036;-52
2023/08/01 02:00:39;;;;;;;7.43;3.28;;;18.10;99.90;;;;;;5093108;28;20555;-51
2023/08/01 02:03:07;;;;;;;4.57;2.90;;;18.20;99.90;;;;;;5093308;28;20028;-51
2023/08/01 02:05:33;;;;;;;4.22;3.20;;;18.30;99.90;;;;;;5041790;28;20127;-51
2023/08/01 02:07:58;;;;;;;8.43;3.20;;;18.30;99.90;;;;;;5093113;28;20100;-52
2023/08/01 02:10:24;;;;;;;5.50;3.88;;;18.30;99.90;;;;;;5092786;28;20027;-51
2023/08/01 02:12:50;;;;;;;6.40;3.17;;;18.20;99.90;;;;;;5092964;28;20024;-52
2023/08/01 02:15:16;;;;;;;9.70;3.60;;;18.10;99.90;;;;;;5040401;28;20039;-52
2023/08/01 02:17:41;;;;;;;5.68;3.25;;;18.00;99.90;;;;;;5092947;28;20036;-50
2023/08/01 02:20:08;;;;;;;5.40;3.65;;;18.00;99.90;;;;;;5092857;28;20035;-52
2023/08/01 02:22:33;;;;;;;3.55;3.10;;;18.20;99.90;;;;;;5040614;28;20046;-52
2023/08/01 02:24:59;;;;;;;4.40;3.10;;;18.40;99.90;;;;;;5093068;28;20425;-52
2023/08/01 02:27:25;;;;;;;7.70;3.30;;;18.20;99.90;;;;;;5092943;28;20077;-51
2023/08/01 02:29:50;;;;;;;5.05;3.33;;;18.10;99.90;;;;;;5040510;28;20032;-51
2023/08/01 02:32:17;;;;;;;5.10;3.10;;;18.00;99.90;;;;;;5092375;28;20061;-52
2023/08/01 02:34:42;;;;;;;5.35;3.53;;;18.10;99.90;;;;;;5092483;28;20391;-51
2023/08/01 02:37:08;;;;;;;6.93;3.47;;;18.30;99.90;;;;;;5092394;28;20054;-51
2023/08/01 02:39:35;;;;;;;9.02;3.72;;;18.20;99.90;;;;;;5040177;28;20036;-52
2023/08/01 02:42:01;;;;;;;6.13;3.50;;;18.10;99.90;;;;;;5091849;28;20387;-52
2023/08/01 02:44:27;;;;;;;4.18;3.20;;;18.00;99.90;;;;;;5040115;28;20043;-51
2023/08/01 02:46:53;;;;;;;7.25;3.15;;;18.10;99.90;;;;;;5092559;28;20024;-51
2023/08/01 02:49:18;;;;;;;5.03;3.25;;;18.20;99.90;;;;;;5092595;28;20024;-52
2023/08/01 02:51:44;;;;;;;5.80;3.60;;;18.20;99.90;;;;;;5092590;28;20032;-53
2023/08/01 02:54:10;;;;;;;5.15;3.45;;;18.30;99.90;;;;;;5092141;28;20157;-54
2023/08/01 02:56:40;;;;;;;5.82;3.20;;;18.50;99.90;;;;;;5092021;28;20111;-51
2023/08/01 02:59:08;;;;;;;6.63;3.63;;;18.60;99.90;;;;;;5042012;28;20377;-52
2023/08/01 03:01:35;;;;;;;4.55;3.30;;;18.80;99.90;;;;;;5092567;28;20081;-51
2023/08/01 03:04:03;;;;;;;7.20;3.55;;;18.80;99.90;;;;;;5092035;28;20060;-51
2023/08/01 03:06:29;;;;;;;6.88;4.15;;;18.90;99.90;;;;;;5056079;28;20042;-51
2023/08/01 03:08:54;;;;;;;5.97;3.38;;;19.00;99.90;;;;;;5092202;28;20024;-52
2023/08/01 03:11:20;;;;;;;6.60;3.17;;;18.90;99.90;;;;;;5039739;28;20116;-52
2023/08/01 03:13:46;;;;;;;5.75;3.78;;;18.80;99.90;;;;;;5092093;28;20048;-52
2023/08/01 03:16:11;;;;;;;6.43;3.35;;;18.70;99.90;;;;;;5091753;28;20032;-51
2023/08/01 03:18:37;;;;;;;5.28;3.63;;;18.90;99.90;;;;;;5092205;28;20073;-52
2023/08/01 03:21:03;;;;;;;5.97;3.55;;;18.90;99.90;;;;;;5092292;28;20368;-52
2023/08/01 03:23:30;;;;;;;5.40;3.63;;;19.00;99.90;;;;;;5039741;28;20443;-52
2023/08/01 03:25:55;;;;;;;7.85;3.78;;;19.10;99.90;;;;;;5091838;28;20028;-54
2023/08/01 03:28:21;;;;;;;5.55;3.70;;;19.10;99.90;;;;;;5091898;28;20031;-53
2023/08/01 03:30:49;;;;;;;5.35;3.60;;;19.10;99.90;;;;;;5039771;28;20155;-53
2023/08/01 03:33:18;;;;;;;7.20;4.30;;;19.00;99.90;;;;;;5040442;28;20032;-51
2023/08/01 03:35:44;;;;;;;9.85;4.70;;;19.00;99.90;;;;;;5091836;28;20040;-51
2023/08/01 03:38:10;;;;;;;7.50;5.35;;;18.90;99.90;;;;;;5091847;28;20515;-52
2023/08/01 03:40:36;;;;;;;8.80;4.70;;;18.50;99.90;;;;;;5091896;28;20028;-51
2023/08/01 03:43:01;;;;;;;6.15;4.38;;;18.40;99.90;;;;;;5039925;28;20077;-52
2023/08/01 03:45:27;;;;;;;6.20;4.28;;;18.40;99.90;;;;;;5039460;28;20028;-51
2023/08/01 03:47:53;;;;;;;9.25;4.38;;;18.40;99.90;;;;;;5091742;28;20607;-52
2023/08/01 03:50:19;;;;;;;6.70;4.07;;;18.40;99.90;;;;;;5091510;28;20102;-51
2023/08/01 03:52:45;;;;;;;7.47;4.45;;;18.40;99.90;;;;;;5091789;28;20078;-52
2023/08/01 03:55:11;;;;;;;6.55;4.10;;;18.50;99.90;;;;;;5094822;28;20036;-53
2023/08/01 03:57:38;;;;;;;8.32;4.57;;;18.50;99.90;;;;;;5095470;28;20063;-52
2023/08/01 04:00:13;;;;;;;7.68;4.90;;;18.50;99.90;;;;;;5043738;28;20626;-53
2023/08/01 04:02:41;;;;;;;7.10;4.85;;;18.40;99.90;;;;;;5046718;28;20043;-51
2023/08/01 04:05:08;;;;;;;7.07;4.30;;;18.40;99.90;;;;;;5059492;28;20131;-51
2023/08/01 04:07:35;;;;;;;9.13;5.03;;;18.50;99.90;;;;;;5013916;28;20501;-51
2023/08/01 04:10:01;;;;;;;6.68;4.47;;;18.50;99.90;;;;;;5115651;28;20095;-51
2023/08/01 04:12:26;;;;;;;7.18;3.80;;;18.80;99.90;;;;;;5115804;28;20078;-51
2023/08/01 04:14:52;;;;;;;6.03;4.30;;;18.80;99.90;;;;;;5115695;28;20050;-51
2023/08/01 04:17:18;;;;;;;7.22;5.13;;;18.70;99.90;;;;;;5096032;28;20032;-52
2023/08/01 04:19:43;;;;;;;6.90;4.55;;;18.80;99.90;;;;;;5026043;28;20123;-52
2023/08/01 04:22:09;;;;;;;6.65;4.95;;;18.70;99.90;;;;;;5110539;27;20459;-51
2023/08/01 04:24:35;;;;;;;8.00;4.38;;;18.80;99.90;;;;;;5114739;27;20046;-53
2023/08/01 04:27:01;;;;;;;14.98;4.90;;;18.80;99.90;;;;;;5089028;27;20035;-51
2023/08/01 04:29:26;;;;;;;7.05;3.97;;;19.00;99.90;;;;;;5067224;28;20024;-51
2023/08/01 04:31:52;;;;;;;8.27;4.28;;;19.10;99.90;;;;;;5104960;27;20034;-51
2023/08/01 04:34:18;;;;;;;8.23;4.80;;;18.90;99.90;;;;;;5095135;28;20486;-51
2023/08/01 04:36:43;;;;;;;7.22;4.50;;;19.20;99.90;;;;;;5105872;27;20059;-51
2023/08/01 04:39:09;;;;;;;7.47;4.63;;;19.20;99.90;;;;;;5118813;27;20023;-51
2023/08/01 04:41:35;;;;;;;10.25;4.90;;;19.50;99.90;;;;;;5084138;28;20063;-53
2023/08/01 04:44:00;;;;;;;6.32;5.00;;;19.60;99.90;;;;;;5115086;28;20658;-51
2023/08/01 04:46:26;;;;;;;8.85;4.65;;;19.50;99.90;;;;;;5111713;28;20038;-52
2023/08/01 04:48:52;;;;;;;7.45;4.82;;;19.70;99.90;;;;;;5062163;28;20036;-53
2023/08/01 04:51:17;;;;;;;11.27;5.68;;;19.60;99.90;;;;;;5114807;28;20478;-54
2023/08/01 04:53:43;;;;;;;8.23;5.60;;;19.70;99.90;;;;;;5114968;28;20081;-52
2023/08/01 04:56:09;;;;;;;7.80;5.72;;;19.80;99.90;;;;;;5061820;28;20036;-52
2023/08/01 04:58:34;;;;;;;8.80;5.60;;;19.80;99.90;;;;;;5101466;28;20028;-52
2023/08/01 05:01:00;;;;;;;10.82;6.20;;;19.80;99.90;;;;;;5111134;27;20102;-52
2023/08/01 05:03:26;;;;;;;8.25;5.90;;;20.00;99.90;;;;;;5070812;27;20065;-51
2023/08/01 05:05:51;;;;;;;10.32;6.18;;;20.00;99.90;;;;;;5102344;27;20097;-54
2023/08/01 05:08:17;;;;;;;8.43;6.25;;;20.10;99.90;;;;;;5097678;28;20020;-52
2023/08/01 05:10:43;;;;;;;12.10;7.22;;;20.40;99.90;;;;;;5104669;28;20035;-51
2023/08/01 05:13:09;;;;;;;10.25;7.03;;;20.60;99.90;;;;;;5063028;28;20074;-53
2023/08/01 05:15:34;;;;;;;11.75;7.78;;;20.80;99.90;;;;;;5057880;28;20167;-52
2023/08/01 05:18:00;;;;;;;12.43;7.95;;;20.70;99.90;;;;;;5067126;27;20063;-53
2023/08/01 05:20:30;;;;;;;12.50;8.63;;;21.00;99.90;;;;;;5134842;27;20019;-53
2023/08/01 05:22:58;;;;;;;11.25;7.80;;;21.20;99.90;;;;;;5135077;27;20035;-53
2023/08/01 05:25:24;;;;;;;11.02;8.90;;;21.30;99.90;;;;;;5128142;27;20137;-52
2023/08/01 05:27:50;;;;;;;10.40;7.70;;;21.50;99.90;;;;;;5131617;27;20146;-51
2023/08/01 05:30:16;;;;;;;10.80;7.60;;;21.50;99.90;;;;;;5083200;27;20067;-51
2023/08/01 05:32:43;;;;;;;14.00;8.35;;;21.70;99.90;;;;;;5073345;27;20069;-52
2023/08/01 05:35:09;;;;;;;11.60;7.85;;;21.70;99.90;;;;;;5106724;27;20547;-52
2023/08/01 05:37:35;;;;;;;12.43;7.88;;;21.70;99.90;;;;;;5103112;28;20063;-51
2023/08/01 05:40:03;;;;;;;26.10;8.35;;;;;;;;;;5103898;27;20494;-52
2023/08/01 05:42:29;;;;;;;15.13;8.13;;;;;;;;;;5128463;27;20035;-51
2023/08/01 05:44:56;;;;;;;19.85;7.88;;;;;;;;;;5134165;27;20027;-52
2023/08/01 05:47:22;;;;;;;18.92;7.80;;;22.10;99.90;;;;;;5134214;27;20051;-52
2023/08/01 05:49:49;;;;;;;10.85;7.50;;;;;;;;;;5133885;27;20466;-53
2023/08/01 05:52:15;;;;;;;11.70;7.35;;;;;;;;;;5134380;27;20043;-53
2023/08/01 05:54:40;;;;;;;15.40;7.90;;;22.30;99.90;;;;;;5097738;27;20046;-51
2023/08/01 05:57:08;;;;;;;10.27;7.40;;;22.50;99.90;;;;;;5133916;27;20035;-52
2023/08/01 05:59:34;;;;;;;13.90;7.32;;;22.20;99.90;;;;;;5133724;27;20020;-53
2023/08/01 06:02:00;;;;;;;9.00;6.38;;;;;;;;;;5111676;27;20035;-53
2023/08/01 06:04:27;;;;;;;8.45;5.28;;;22.50;99.90;;;;;;5092717;28;20079;-53
2023/08/01 06:06:53;;;;;;;10.70;6.75;;;;;;;;;;5095878;28;20102;-52
2023/08/01 06:09:19;;;;;;;8.43;4.68;;;;;;;;;;5133637;27;20029;-51
2023/08/01 06:11:45;;;;;;;8.10;4.63;;;22.90;99.90;;;;;;5133342;27;20031;-52
2023/08/01 06:14:11;;;;;;;5.28;3.85;;;22.90;99.90;;;;;;5097271;27;20437;-53
2023/08/01 06:16:36;;;;;;;7.95;4.32;;;23.10;99.90;;;;;;5132705;27;20042;-51
2023/08/01 06:19:02;;;;;;;7.68;4.22;;;23.10;99.90;;;;;;5119717;27;20027;-52
2023/08/01 06:21:28;;;;;;;5.95;4.38;;;23.20;99.90;;;;;;5116946;27;20026;-52
2023/08/01 06:23:54;;;;;;;5.35;4.43;;;;;;;;;;5095447;27;20032;-52
2023/08/01 06:26:20;;;;;;;6.28;3.90;;;23.50;99.90;;;;;;5073421;28;20040;-51
2023/08/01 06:28:46;;;;;;;5.03;3.40;;;23.70;99.90;;;;;;5092980;28;20031;-52
2023/08/01 06:31:11;;;;;;;7.57;4.32;;;23.70;99.90;;;;;;5073107;28;20040;-52
2023/08/01 06:33:38;;;;;;;4.93;3.50;;;;;;;;;;5073408;28;20040;-52
2023/08/01 06:36:05;;;;;;;5.72;2.83;;;23.80;99.90;;;;;;5092326;28;20031;-52
2023/08/01 06:38:31;;;;;;;4.07;3.35;;;23.80;99.90;;;;;;5092790;28;20032;-53
2023/08/01 06:40:56;;;;;;;4.13;3.08;;;23.70;99.90;;;;;;5073389;28;20059;-52
2023/08/01 06:43:24;;;;;;;4.35;2.90;;;23.50;99.90;;;;;;5106297;27;20144;-51
2023/08/01 06:45:50;;;;;;;5.70;3.10;;;23.40;99.90;;;;;;5109685;27;20032;-52
2023/08/01 06:48:16;;;;;;;6.03;3.20;;;23.60;99.90;;;;;;5103617;27;20050;-52
2023/08/01 06:50:41;;;;;;;4.63;2.97;;;23.70;99.90;;;;;;5096157;28;20456;-51
2023/08/01 06:53:08;;;;;;;5.68;3.65;;;24.00;99.90;;;;;;5102713;28;20028;-52
2023/08/01 06:55:34;;;;;;;6.90;3.72;;;24.00;99.90;;;;;;5105360;28;20586;-52
2023/08/01 06:58:00;;;;;;;7.80;3.30;;;23.80;99.90;;;;;;5105756;28;20154;-52
2023/08/01 07:00:25;;;;;;;9.93;4.22;;;23.90;99.90;;;;;;5112028;28;20055;-51
2023/08/01 07:02:52;;;;;;;5.68;3.53;;;;;;;;;;5102485;28;20145;-52
2023/08/01 07:05:18;;;;;;;5.47;3.88;;;24.20;99.90;;;;;;5104764;28;20956;-52
2023/08/01 07:07:44;;;;;;;6.57;2.90;;;;;;;;;;5102720;28;20102;-53
2023/08/01 07:10:10;;;;;;;6.53;3.47;;;24.60;99.90;;;;;;5099142;28;20084;-52
2023/08/01 07:12:36;;;;;;;7.28;3.20;;;24.60;99.90;;;;;;5100457;28;20027;-53
2023/08/01 07:15:02;;;;;;;5.32;3.03;;;24.80;99.90;;;;;;5101680;28;20024;-52
2023/08/01 07:17:28;;;;;;;8.25;3.10;;;;;;;;;;5040791;28;20040;-52
2023/08/01 07:19:54;;;;;;;5.63;3.28;;;;;;;;;;5099449;28;20026;-56
2023/08/01 07:22:20;;;;;;;5.00;3.60;;;25.70;99.90;;;;;;5100915;28;20031;-52
2023/08/01 07:24:46;;;;;;;4.03;2.90;;;25.80;99.90;;;;;;5083139;28;20028;-52
2023/08/01 07:27:12;;;;;;;5.88;3.20;;;25.70;99.90;;;;;;5100481;28;20085;-53
2023/08/01 07:29:38;;;;;;;5.85;4.00;;;25.60;99.90;;;;;;5105975;28;20011;-52
2023/08/01 07:32:04;;;;;;;6.50;4.18;;;25.80;99.90;;;;;;5105045;28;20020;-54
2023/08/01 07:34:30;;;;;;;3.45;2.17;;;;;;;;;;5104788;28;20118;-54
2023/08/01 07:36:56;;;;;;;5.65;3.90;;;;;;;;;;5100567;28;20044;-55
2023/08/01 07:39:22;;;;;;;5.45;3.08;;;26.10;99.90;;;;;;5098434;28;20036;-50
2023/08/01 07:41:48;;;;;;;7.07;4.15;;;26.20;99.90;;;;;;5058830;28;20039;-53
2023/08/01 07:44:13;;;;;;;4.80;2.83;;;26.40;99.90;;;;;;5060409;28;20028;-51
2023/08/01 07:46:39;;;;;;;7.18;2.85;;;26.30;99.90;;;;;;5062756;28;20114;-50
2023/08/01 07:49:05;;;;;;;3.65;2.17;;;26.50;99.90;;;;;;5084388;28;20046;-50
2023/08/01 07:51:31;;;;;;;4.47;2.33;;;26.40;99.90;;;;;;5106127;28;20032;-51
2023/08/01 07:53:57;;;;;;;6.10;2.33;;;26.40;99.90;;;;;;5023687;28;20077;-54
2023/08/01 07:56:22;;;;;;;4.55;2.47;;;26.80;99.90;;;;;;5104808;28;20040;-50
2023/08/01 07:58:48;;;;;;;6.32;2.80;;;;;;;;;;5036640;28;20067;-51
2023/08/01 08:01:14;;;;;;;3.50;2.83;;;;;;;;;;5103700;28;20379;-52
2023/08/01 08:03:40;;;;;;;4.22;2.40;;;;;;;;;;5098073;28;20024;-53
2023/08/01 08:06:07;;;;;;;3.00;2.63;;;;;;;;;;5103817;28;20115;-51
2023/08/01 08:08:33;;;;;;;4.32;2.42;;;;;;;;;;5106827;28;20089;-54
2023/08/01 08:11:01;;;;;;;4.80;3.35;;;27.50;99.90;;;;;;5029496;28;20134;-52
2023/08/01 08:13:27;;;;;;;4.80;2.63;;;;;;;;;;5115672;28;20394;-50
2023/08/01 08:15:56;;;;;;;5.60;3.25;;;27.40;99.90;;;;;;5108819;28;20040;-52
2023/08/01 08:18:22;;;;;;;7.75;3.08;;;;;;;;;;5075955;28;20046;-53
2023/08/01 08:20:48;;;;;;;4.50;2.58;;;27.80;99.90;;;;;;5095383;28;20024;-54
2023/08/01 08:23:14;;;;;;;4.30;3.00;;;;;;;;;;5084178;28;20051;-52
2023/08/01 08:25:44;;;;;;;3.88;3.05;;;28.00;99.90;;;;;;5107891;28;20020;-51
2023/08/01 08:28:12;;;;;;;3.28;2.30;;;27.90;99.90;;;;;;5095089;28;20051;-52
2023/08/01 08:30:38;;;;;;;3.35;2.67;;;27.80;99.90;;;;;;5095054;28;20524;-52
2023/08/01 08:33:04;;;;;;;3.75;2.35;;;27.90;99.90;;;;;;5101762;28;20032;-50
2023/08/01 08:35:30;;;;;;;4.00;2.80;;;28.10;99.90;;;;;;5094790;28;20024;-54
2023/08/01 08:37:58;;;;;;;3.15;2.42;;;28.30;99.90;;;;;;5095104;28;20023;-51
2023/08/01 08:40:24;;;;;;;3.58;1.88;;;28.10;99.90;;;;;;5102129;28;20032;-50
2023/08/01 08:42:53;;;;;;;4.03;2.78;;;28.20;99.90;;;;;;5112562;28;20550;-52
2023/08/01 08:45:20;;;;;;;3.83;2.35;;;28.30;99.90;;;;;;5112659;27;20043;-51
2023/08/01 08:47:50;;;;;;;4.53;2.42;;;28.50;99.90;;;;;;5051650;28;20530;-52
2023/08/01 08:50:16;;;;;;;4.18;2.78;;;;;;;;;;5051311;28;20583;-54
2023/08/01 08:52:42;;;;;;;4.57;2.63;;;28.90;99.90;;;;;;5051661;28;20060;-51
2023/08/01 08:55:09;;;;;;;4.55;2.47;;;28.40;99.90;;;;;;5054180;28;20137;-53
2023/08/01 08:57:35;;;;;;;7.68;2.40;;;28.50;99.90;;;;;;5023560;28;20049;-52
2023/08/01 09:00:04;;;;;;;4.50;2.80;;;;;;;;;;5063437;28;20161;-52
2023/08/01 09:02:30;;;;;;;4.35;2.63;;;29.20;99.90;;;;;;5022604;28;20133;-52
2023/08/01 09:04:57;;;;;;;6.43;3.03;;;29.20;99.90;;;;;;5054193;28;20118;-50
2023/08/01 09:07:27;;;;;;;5.65;2.47;;;29.40;99.90;;;;;;5071017;28;20565;-51
2023/08/01 09:09:53;;;;;;;6.20;2.40;;;29.20;99.90;;;;;;5071380;28;20040;-52
2023/08/01 09:12:19;;;;;;;4.40;2.40;;;29.50;99.90;;;;;;5021038;28;20037;-50
2023/08/01 09:14:46;;;;;;;4.07;2.60;;;29.60;99.90;;;;;;5071222;28;20028;-50
2023/08/01 09:17:14;;;;;;;3.42;2.55;;;29.50;99.90;;;;;;5071015;28;20032;-53
2023/08/01 09:19:40;;;;;;;4.65;2.42;;;29.40;99.90;;;;;;5063705;27;20042;-53
2023/08/01 09:22:13;;;;;;;4.00;2.72;;;29.80;99.90;;;;;;5134659;27;20022;-53
2023/08/01 09:24:39;;;;;;;3.22;2.75;;;29.80;99.90;;;;;;5134924;27;20051;-50
2023/08/01 09:27:05;;;;;;;3.30;2.22;;;;;;;;;;5098334;27;20559;-51
2023/08/01 09:29:34;;;;;;;3.47;2.22;;;30.50;99.90;;;;;;5134259;27;20031;-51
2023/08/01 09:32:00;;;;;;;3.63;2.25;;;30.00;99.90;;;;;;5081165;27;20067;-52
2023/08/01 09:34:27;;;;;;;4.25;2.70;;;30.40;99.90;;;;;;5081057;27;20065;-50
2023/08/01 09:37:00;;;;;;;4.60;2.85;;;30.40;99.90;;;;;;5134668;27;20042;-50
2023/08/01 09:39:26;;;;;;;4.20;2.33;;;30.50;99.90;;;;;;5134252;27;20035;-51
2023/08/01 09:41:57;;;;;;;5.90;2.50;;;;;;;;;;5134381;27;20023;-50
2023/08/01 09:44:22;;;;;;;4.65;2.45;;;30.90;99.90;;;;;;5133862;27;20174;-54
2023/08/01 09:47:03;;;;;;;7.05;2.78;;;31.20;99.90;;;;;;5102951;27;20045;-53
2023/08/01 09:49:29;;;;;;;3.22;2.22;;;31.20;99.90;;;;;;5093520;28;20032;-51
2023/08/01 09:51:55;;;;;;;3.75;2.30;;;30.80;99.90;;;;;;5101493;28;20050;-52
2023/08/01 09:54:22;;;;;;;3.85;2.25;;;31.10;99.90;;;;;;5073970;28;20399;-50
2023/08/01 09:56:50;;;;;;;3.30;2.25;;;;;;;;;;5093011;28;20031;-51
2023/08/01 09:59:24;;;;;;;4.72;2.00;;;31.70;99.90;;;;;;5093037;28;20032;-52
2023/08/01 10:01:51;;;;;;;3.75;1.70;;;31.50;99.90;;;;;;5042188;28;20082;-52
2023/08/01 10:04:23;;;;;;;2.65;1.80;;;31.00;99.90;;;;;;5095260;28;20080;-53
2023/08/01 10:06:57;;;;;;;2.20;1.60;;;31.10;99.90;;;;;;5096286;27;20020;-51
2023/08/01 10:09:23;;;;;;;2.50;1.75;;;31.00;99.90;;;;;;5092785;28;20020;-51
2023/08/01 10:11:53;;;;;;;2.53;1.80;;;;;;;;;;5092851;28;20471;-50
2023/08/01 10:14:22;;;;;;;2.90;1.90;;;;;;;;;;5073519;28;20043;-51
2023/08/01 10:16:49;;;;;;;3.03;2.05;;;;;;;;;;5095612;28;20456;-52
2023/08/01 10:19:16;;;;;;;3.50;1.90;;;;;;;;;;5092348;28;20027;-50
2023/08/01 10:21:42;;;;;;;2.95;1.80;;;;;;;;;;5092606;28;20028;-51
2023/08/01 10:24:09;;;;;;;3.50;2.10;;;;;;;;;;5109852;28;20024;-53
2023/08/01 10:26:35;;;;;;;2.33;1.80;;;;;;;;;;5113249;28;20039;-52
2023/08/01 10:29:02;;;;;;;2.45;1.90;;;;;;;;;;5112886;28;20032;-52
2023/08/01 10:31:28;;;;;;;2.88;1.80;;;;;;;;;;5113130;28;20028;-50
2023/08/01 10:34:12;;;;;;;4.75;2.25;;;32.70;99.90;;;;;;5112979;28;20043;-50
2023/08/01 10:36:38;;;;;;;2.70;2.00;;;;;;;;;;5112628;28;20027;-51
2023/08/01 10:39:04;;;;;;;3.05;1.80;;;33.00;99.90;;;;;;5112475;28;20120;-50
2023/08/01 10:41:31;;;;;;;3.00;2.03;;;;;;;;;;5112603;28;20055;-52
2023/08/01 10:44:10;;;;;;;3.00;2.13;;;;;;;;;;5112724;28;20055;-50
2023/08/01 10:46:57;;;;;;;2.95;1.52;;;33.50;99.90;;;;;;5112417;28;20016;-52
2023/08/01 10:49:44;;;;;;;2.92;1.58;;;33.40;99.90;;;;;;5112236;28;20028;-52
2023/08/01 10:52:28;;;;;;;4.82;2.47;;;33.20;99.90;;;;;;5093072;28;20035;-51
2023/08/01 10:55:05;;;;;;;6.07;1.95;;;34.20;99.90;;;;;;5099835;28;20027;-52
2023/08/01 10:57:34;;;;;;;4.63;2.08;;;34.00;99.90;;;;;;5071995;28;20052;-51
2023/08/01 11:00:00;;;;;;;5.93;2.40;;;33.70;99.90;;;;;;5101151;28;20420;-54
2023/08/01 11:02:27;;;;;;;4.57;2.38;;;34.00;99.90;;;;;;5097078;28;20067;-50
2023/08/01 11:05:06;;;;;;;3.47;2.10;;;34.40;99.90;;;;;;5102975;28;20332;-54
2023/08/01 11:07:34;;;;;;;3.70;2.05;;;34.60;99.90;;;;;;5109206;28;20081;-53
2023/08/01 11:10:10;;;;;;;2.35;1.80;;;33.70;99.90;;;;;;5101756;28;20118;-51
2023/08/01 11:12:38;;;;;;;3.70;2.00;;;34.50;99.90;;;;;;5091822;28;20020;-53
2023/08/01 11:15:07;;;;;;;3.83;2.28;;;34.70;99.90;;;;;;5099808;28;20032;-51
2023/08/01 11:17:34;;;;;;;3.90;2.13;;;;;;;;;;5060077;28;20047;-52
2023/08/01 11:20:10;;;;;;;2.65;2.00;;;34.60;99.90;;;;;;5112160;28;20028;-51
2023/08/01 11:22:38;;;;;;;5.60;2.20;;;34.00;99.90;;;;;;5072625;28;20040;-51
2023/08/01 11:25:04;;;;;;;7.85;2.30;;;34.30;99.90;;;;;;5109480;28;20065;-53
2023/08/01 11:27:30;;;;;;;4.22;2.28;;;34.70;99.90;;;;;;5058593;28;20035;-52
2023/08/01 11:29:56;;;;;;;4.07;2.10;;;34.60;99.90;;;;;;5109427;28;20423;-54
2023/08/01 11:32:33;;;;;;;2.65;1.85;;;34.90;99.90;;;;;;5109610;28;20082;-51
2023/08/01 11:34:58;;;;;;;2.10;1.80;;;34.50;99.90;;;;;;5109634;28;20103;-54
2023/08/01 11:37:26;;;;;;;3.70;2.65;;;34.00;99.90;;;;;;5109164;28;20150;-53
2023/08/01 11:39:52;;;;;;;5.05;2.13;;;34.10;99.90;;;;;;5109659;28;20032;-52
2023/08/01 11:42:18;;;;;;;3.63;2.28;;;34.70;99.90;;;;;;5109421;28;20084;-53
2023/08/01 11:44:44;;;;;;;2.00;1.80;;;34.80;99.90;;;;;;5109462;28;20023;-52
2023/08/01 11:47:12;;;;;;;4.22;2.10;;;;;;;;;;5075429;28;20097;-53
2023/08/01 11:49:37;;;;;;;2.40;1.90;;;35.50;99.90;;;;;;5109129;28;20078;-52
2023/08/01 11:52:04;;;;;;;4.47;1.90;;;35.00;99.90;;;;;;5109540;28;20148;-53
2023/08/01 11:54:29;;;;;;;3.20;1.98;;;34.50;99.90;;;;;;5058445;28;20543;-53
2023/08/01 11:57:01;;;;;;;2.58;2.13;;;35.00;99.90;;;;;;5109371;28;20122;-52
2023/08/01 11:59:26;;;;;;;4.47;2.00;;;35.50;99.90;;;;;;5109248;28;20020;-53
2023/08/01 12:01:52;;;;;;;2.33;2.00;;;35.10;99.90;;;;;;5105118;28;20040;-53
2023/08/01 12:04:25;;;;;;;3.55;2.08;;;35.00;99.90;;;;;;5091136;28;20054;-52
2023/08/01 12:06:52;;;;;;;2.70;1.90;;;34.60;99.90;;;;;;5055451;28;20056;-53
2023/08/01 12:09:20;;;;;;;4.03;2.38;;;33.90;99.90;;;;;;5089082;28;20025;-53
2023/08/01 12:11:46;;;;;;;3.42;2.10;;;34.00;99.90;;;;;;5090883;28;20038;-51
2023/08/01 12:14:15;;;;;;;3.40;1.80;;;34.10;99.90;;;;;;5091454;28;20024;-53
2023/08/01 12:16:46;;;;;;;5.18;2.20;;;34.70;99.90;;;;;;5094384;28;20039;-52
2023/08/01 12:19:18;;;;;;;2.85;1.90;;;35.60;99.90;;;;;;5089819;28;20083;-52
2023/08/01 12:21:44;;;;;;;2.67;1.92;;;35.50;99.90;;;;;;5094546;28;20365;-52
2023/08/01 12:24:10;;;;;;;2.88;2.17;;;35.70;99.90;;;;;;5096224;28;20114;-53
2023/08/01 12:26:36;;;;;;;4.25;3.65;;;34.70;99.90;;;;;;5095625;28;20118;-52
2023/08/01 12:29:21;;;;;;;3.30;1.75;;;35.40;99.90;;;;;;5031893;28;20421;-52
2023/08/01 12:31:47;;;;;;;2.63;1.80;;;35.80;99.90;;;;;;5031915;28;20037;-52
2023/08/01 12:34:13;;;;;;;2.80;1.88;;;34.70;99.90;;;;;;4992354;28;20050;-52
2023/08/01 12:36:39;;;;;;;5.10;2.25;;;34.50;99.90;;;;;;4992527;28;20087;-53
2023/08/01 12:39:10;;;;;;;3.53;2.15;;;34.50;99.90;;;;;;4992530;28;20038;-52
2023/08/01 12:41:36;;;;;;;;;;;35.60;99.90;;;;;;4992885;28;20074;-53
2023/08/01 12:44:02;;;;;;;4.22;1.70;;;35.20;99.90;;;;;;5007490;28;20412;-52
2023/08/01 12:46:27;;;;;;;4.82;3.05;;;35.00;99.90;;;;;;4962602;28;20034;-53
2023/08/01 12:48:53;;;;;;;2.03;1.83;;;35.90;99.90;;;;;;5011917;28;20038;-51
2023/08/01 12:51:19;;;;;;;3.13;2.58;;;35.70;99.90;;;;;;5011773;28;20041;-50
2023/08/01 12:53:44;;;;;;;3.72;2.58;;;35.60;99.90;;;;;;5011771;28;20045;-52
2023/08/01 12:56:10;;;;;;;4.28;2.50;;;35.20;99.90;;;;;;4979156;28;20062;-55
2023/08/01 12:58:36;;;;;;;3.47;2.35;;;35.60;99.90;;;;;;4978713;28;20124;-51
2023/08/01 13:01:06;;;;;;;2.92;2.10;;;35.80;99.90;;;;;;5011624;28;20095;-51